Weather observations for the past three days for
Charleston Executive Airport
Imperial (Metric)
Date Time (edt) Wind (mph) Vis. (mi.) Weather Sky Cond. Temperature (ºF) Relative Humidity Wind Chill (°F) Heat Index (°F) Pressure Precipitation (in)
Air Dwpt 6 hour altimeter (in) sea level (mb) 1 hr 3 hr 6 hr
Max. Min.
03 16:15 E 15 10.00 Mostly Cloudy BKN018 BKN029 BKN060 87.8 78.8 75% 102 30.02 0.0
03 15:55 E 10 10.00 Mostly Cloudy BKN019 BKN027 BKN060 87.8 78.8 75% 102 30.03 0.0
03 15:35 E 14 10.00 Mostly Cloudy BKN019 BKN027 89.6 78.8 71% 105 30.03 0.0
03 15:15 E 14 10.00 Partly Cloudy FEW021 SCT027 87.8 78.8 75% 102 30.03 0.0
03 14:55 E 14 10.00 A Few Clouds FEW022 89.6 78.8 71% 105 30.04 0.0
03 14:35 E 14 10.00 A Few Clouds FEW021 87.8 77 70% 100 30.04 0.0
03 14:15 E 9 G 15 10.00 Fair CLR 89.6 77 67% 103 30.05 0.0
03 13:55 E 12 10.00 Fair CLR 89.6 77 67% 103 30.05 0.0
03 13:35 E 13 10.00 Fair CLR 89.6 77 67% 103 30.05 0.0
03 13:15 E 13 10.00 Fair CLR 87.8 75.2 66% 98 30.05 0.0
03 12:55 E 10 10.00 Fair CLR 89.6 77 67% 103 30.06 0.0
03 12:35 NE 10 10.00 Fair CLR 87.8 77 70% 100 30.06 0.0
03 12:15 E 9 10.00 A Few Clouds FEW021 87.8 75.2 66% 98 30.07 0.0
03 11:55 E 12 10.00 Partly Cloudy SCT021 87.8 77 70% 100 30.07 0.0
03 11:35 E 12 10.00 Fair CLR 87.8 77 70% 100 30.07 0.0
03 11:15 E 12 10.00 Fair CLR 87.8 75.2 66% 98 30.07 0.0
03 10:55 E 10 10.00 A Few Clouds FEW024 FEW030 87.8 75.2 66% 98 30.07 0.0
03 10:35 NE 8 10.00 Partly Cloudy FEW021 SCT026 SCT030 86 77 75% 97 30.06 0.0
03 10:15 E 7 10.00 Partly Cloudy SCT020 SCT025 86 77 75% 97 30.06 0.0
03 09:55 NE 6 10.00 A Few Clouds FEW017 FEW023 84.2 77 79% 94 30.06 0.0
03 09:35 NE 7 10.00 Partly Cloudy FEW015 SCT022 84.2 78.8 84% 96 30.06 0.0
03 09:15 NE 3 10.00 A Few Clouds FEW013 82.4 78.8 89% 92 30.06 0.0
03 08:55 N 6 10.00 Fair CLR 82.4 80.6 94% 94 30.06 0.0
03 08:35 N 5 9.00 Fair CLR 80.6 80.6 100% 89 30.07 0.0
03 08:15 N 3 9.00 Fair CLR 80.6 80.6 100% 89 30.06 0.0
03 07:55 N 5 7.00 Fair CLR 78.8 78.8 100% 83 30.06 0.0
03 07:35 Calm 9.00 Fair CLR 78.8 78.8 100% 83 30.05 0.0
03 07:15 Calm 9.00 Fair CLR 78.8 78.8 100% 83 30.04 0.0
03 06:55 N 5 9.00 Fair CLR 78.8 78.8 100% 83 30.04 0.0
03 06:35 Calm 10.00 Fair CLR 77 77 100% 78 30.03 0.0
03 06:15 Calm 10.00 Fair CLR 77 77 100% 78 30.03 0.0
03 05:55 Calm 10.00 Fair CLR 77 77 100% 78 30.03 0.0
03 05:35 Calm 10.00 Fair CLR 77 77 100% 78 30.03 0.0
03 05:15 Calm 10.00 A Few Clouds FEW019 77 77 100% 78 30.02 0.0
03 04:55 Calm 10.00 A Few Clouds FEW019 77 77 100% 78 30.02 0.0
03 04:35 Calm 10.00 Fair CLR 77 75.2 94% 78 30.02 0.0
03 04:15 Calm 10.00 A Few Clouds FEW022 FEW029 77 77 100% 78 30.02 0.0
03 03:55 Calm 10.00 Mostly Cloudy BKN022 77 77 100% 78 30.02 0.0
03 03:35 Calm 10.00 Mostly Cloudy BKN021 77 77 100% 78 30.02 0.0
03 03:15 Calm 10.00 Fair CLR 77 77 100% 78 30.02 0.0
03 02:55 Calm 10.00 Fair CLR 77 77 100% 78 30.02 0.0
03 02:35 Calm 10.00 Fair CLR 77 77 100% 78 30 0.0
03 02:15 Calm 10.00 Fair CLR 77 77 100% 78 30.01 0.0
03 01:55 Calm 10.00 Fair CLR 77 75.2 94% 78 30.01 0.0
03 01:35 Calm 10.00 Fair CLR 78.8 77 94% 83 30.02 0.0
03 01:15 Calm 10.00 Fair CLR 77 77 100% 78 30.02 0.0
03 00:55 Calm 10.00 Fair CLR 77 77 100% 78 30.03 0.0
03 00:35 Calm 10.00 Fair CLR 78.8 77 94% 83 30.03 0.0
03 00:15 Calm 10.00 Fair CLR 78.8 77 94% 83 30.04 0.0
02 23:55 Calm 10.00 Fair CLR 78.8 77 94% 83 30.05 0.0
02 23:35 Calm 10.00 Fair CLR 78.8 77 94% 83 30.05 0.0
02 23:15 Calm 10.00 Fair CLR 78.8 77 94% 83 30.05 0.0
02 22:55 Calm 10.00 Fair CLR 78.8 77 94% 83 30.06 0.0
02 22:35 Calm 10.00 Fair CLR 80.6 77 89% 87 30.06 0.0
02 22:15 Calm 10.00 Fair CLR 80.6 78.8 94% 88 30.06 0.0
02 21:55 Calm 10.00 Fair CLR 80.6 77 89% 87 30.06 0.0
02 21:35 Calm 10.00 Fair CLR 80.6 77 89% 87 30.05 0.0
02 21:15 SE 3 10.00 Fair CLR 80.6 77 89% 87 30.05 0.0
02 20:55 Calm 10.00 Fair CLR 80.6 77 89% 87 30.04 0.0
02 20:35 Calm 10.00 Fair CLR 82.4 77 84% 91 30.04 0.0
02 20:15 SE 5 10.00 Fair CLR 82.4 77 84% 91 30.03 0.0
02 19:55 SE 3 10.00 Fair CLR 82.4 77 84% 91 30.03 0.0
02 19:35 Calm 10.00 Fair CLR 82.4 75.2 79% 89 30.02 0.0
02 19:15 SE 5 10.00 Fair CLR 84.2 75.2 74% 92 30.02 0.0
02 18:55 SE 5 10.00 Fair CLR 86 75.2 70% 95 30.02 0.0
02 18:35 SE 6 10.00 Fair CLR 86 73.4 66% 93 30.03 0.0
02 18:15 SE 6 10.00 Fair CLR 87.8 73.4 62% 96 30.03 0.0
02 17:50 SE 6 10.00 Fair CLR 87.8 73.4 62% 96 30.03 0.0
02 17:35 SE 7 10.00 Fair CLR 87.8 73.4 62% 96 30.03 0.0
02 17:15 SE 6 10.00 Fair CLR 89.6 71.6 55% 96 30.03 0.0
02 16:55 SE 8 10.00 Fair CLR 89.6 69.8 52% 95 30.04 0.0
02 16:35 E 7 10.00 Fair CLR 91.4 69.8 49% 97 30.03 0.0
02 16:15 E 8 10.00 Fair CLR 91.4 69.8 49% 97 30.04 0.0
02 15:55 E 6 10.00 Fair CLR 91.4 71.6 52% 99 30.04 0.0
02 15:35 Calm 10.00 Fair CLR 91.4 71.6 52% 99 30.05 0.0
02 15:15 SE 8 10.00 Fair CLR 89.6 73.4 59% 98 30.05 0.0
02 14:55 E 7 10.00 Fair CLR 89.6 73.4 59% 98 30.06 0.0
02 14:35 Calm 10.00 Fair CLR 89.6 73.4 59% 98 30.06 0.0
02 14:15 SE 6 10.00 Fair CLR 89.6 75.2 63% 100 30.06 0.0
02 13:55 SE 5 10.00 Fair CLR 89.6 75.2 63% 100 30.07 0.0
02 13:35 Vrbl 6 9.00 Fair CLR 89.6 77 67% 103 30.07 0.0
02 13:15 Vrbl 5 10.00 Fair CLR 87.8 77 70% 100 30.07 0.0
02 12:55 S 7 10.00 Fair CLR 89.6 78.8 71% 105 30.08 0.0
02 12:35 Vrbl 7 9.00 Fair CLR 87.8 78.8 75% 102 30.08 0.0
02 12:15 SE 8 10.00 Fair CLR 89.6 77 67% 103 30.09 0.0
02 11:55 Calm 10.00 Fair CLR 89.6 73.4 59% 98 30.09 0.0
02 11:35 NE 6 10.00 Fair CLR 87.8 75.2 66% 98 30.09 0.0
02 11:15 N 5 10.00 Fair CLR 87.8 75.2 66% 98 30.09 0.0
02 10:55 Calm 6.00 Fair with Haze CLR 87.8 75.2 66% 98 30.09 0.0
02 10:35 Calm 10.00 Fair CLR 86 73.4 66% 93 30.09 0.0
02 10:15 Calm 10.00 Partly Cloudy SCT017 SCT022 87.8 75.2 66% 98 30.09 0.0
02 09:55 NW 6 10.00 Mostly Cloudy BKN014 BKN020 86 77 75% 97 30.09 0.0
02 09:35 Calm 10.00 Mostly Cloudy SCT013 BKN021 86 77 75% 97 30.09 0.0
02 09:15 Calm 10.00 Fair CLR 84.2 78.8 84% 96 30.08 0.0
02 08:55 N 5 10.00 Fair CLR 82.4 80.6 94% 94 30.09 0.0
02 08:35 Calm 10.00 Fair CLR 82.4 80.6 94% 94 30.09 0.0
02 08:10 Calm 9.00 Fair CLR 82.4 78.8 89% 92 30.09 0.0
02 07:55 Calm 9.00 Fair CLR 80.6 78.8 94% 88 30.09 0.0
02 07:35 Calm 10.00 Fair CLR 77 77 100% 78 30.09 0.0
02 07:15 Calm 3.00 Fog/Mist CLR 75.2 75.2 100% 73 30.08 0.0
02 06:55 Calm 7.00 Fair CLR 77 77 100% 78 30.07 0.0
02 06:35 Calm 10.00 Fair CLR 77 77 100% 78 30.07 0.0
02 06:15 Calm 10.00 Fair CLR 77 77 100% 78 30.07 0.0
02 05:55 Calm 10.00 Fair CLR 75.2 75.2 100% 73 30.07 0.0
02 05:35 Calm 10.00 Fair CLR 75.2 75.2 100% 73 30.06 0.0
02 05:15 Calm 10.00 Fair CLR 75.2 75.2 100% 73 30.06 0.0
02 04:55 Calm 10.00 Fair CLR 75.2 75.2 100% 73 30.06 0.0
02 04:35 Calm 10.00 Fair CLR 75.2 75.2 100% 73 30.06 0.0
02 04:15 Calm 9.00 Fair CLR 75.2 75.2 100% 73 30.06 0.0
02 03:55 Calm 10.00 Fair CLR 75.2 75.2 100% 73 30.06 0.0
02 03:35 Calm 10.00 Fair CLR 75.2 75.2 100% 73 30.05 0.0
02 03:15 Calm 10.00 Fair CLR 75.2 75.2 100% 73 30.05 0.0
02 02:55 Calm 10.00 Fair CLR 75.2 75.2 100% 73 30.05 0.0
02 02:35 Calm 10.00 Fair CLR 75.2 75.2 100% 73 30.05 0.0
02 02:15 Calm 10.00 Fair CLR 75.2 75.2 100% 73 30.05 0.0
02 01:55 Calm 10.00 Fair CLR 77 77 100% 78 30.05 0.0
02 01:35 Calm 10.00 Fair CLR 75.2 75.2 100% 73 30.05 0.0
02 01:15 Calm 10.00 Fair CLR 77 77 100% 78 30.06 0.0
02 00:55 Calm 10.00 Fair CLR 77 77 100% 78 30.06 0.0
02 00:35 Calm 10.00 Fair CLR 77 77 100% 78 30.05 0.0
02 00:15 Calm 10.00 Fair CLR 77 77 100% 78 30.06 0.0
01 23:55 Calm 10.00 Fair CLR 77 77 100% 78 30.06 0.0
01 23:35 Calm 10.00 Fair CLR 77 77 100% 78 30.06 0.0
01 23:15 Calm 10.00 Fair CLR 77 77 100% 78 30.07 0.0
01 22:55 Calm 10.00 Fair CLR 78.8 77 94% 83 30.07 0.0
01 22:35 Calm 10.00 Fair CLR 80.6 77 89% 87 30.07 0.0
01 22:15 Calm 10.00 Fair CLR 80.6 77 89% 87 30.06 0.0
01 21:55 Calm 10.00 Fair CLR 78.8 77 94% 83 30.06 0.0
01 21:35 Calm 10.00 Fair CLR 78.8 77 94% 83 30.05 0.0
01 21:15 Calm 10.00 Fair CLR 80.6 77 89% 87 30.05 0.0
01 20:55 Calm 10.00 Fair CLR 80.6 77 89% 87 30.05 0.0
01 20:35 Calm 10.00 Fair CLR 80.6 77 89% 87 30.04 0.0
01 20:15 E 5 10.00 Fair CLR 80.6 77 89% 87 30.04 0.0
01 19:55 Calm 10.00 Fair CLR 82.4 77 84% 91 30.04 0.0
01 19:35 SE 6 10.00 Fair CLR 82.4 77 84% 91 30.04 0.0
01 19:15 SE 6 10.00 Fair CLR 84.2 75.2 74% 92 30.05 0.0
01 18:55 E 8 10.00 Fair CLR 84.2 75.2 74% 92 30.05 0.0
01 18:35 SE 8 10.00 Fair CLR 86 75.2 70% 95 30.05 0.0
01 18:15 SE 8 10.00 Fair CLR 86 75.2 70% 95 30.05 0.0
01 17:55 SE 7 10.00 Fair CLR 86 75.2 70% 95 30.05 0.0
01 17:35 E 10 10.00 Fair CLR 86 73.4 66% 93 30.05 0.0
01 17:15 SE 9 10.00 Fair CLR 87.8 73.4 62% 96 30.05 0.0
01 16:55 E 8 10.00 Fair CLR 87.8 73.4 62% 96 30.04 0.0
01 16:35 SE 9 10.00 Fair CLR 87.8 75.2 66% 98 30.05 0.0
01 16:15 SE 9 10.00 Fair CLR 89.6 73.4 59% 98 30.04 0.0
01 15:55 SE 8 10.00 Fair CLR 89.6 73.4 59% 98 30.05 0.0
01 15:35 E 7 G 14 10.00 Fair CLR 89.6 73.4 59% 98 30.05 0.0
01 15:15 E 10 10.00 Fair CLR 87.8 75.2 66% 98 30.06 0.0
01 14:55 E 9 10.00 Fair CLR 87.8 75.2 66% 98 30.06 0.0
01 14:35 E 10 10.00 Fair CLR 87.8 75.2 66% 98 30.07 0.0
01 14:15 SE 9 10.00 Fair CLR 87.8 77 70% 100 30.08 0.0
01 13:55 E 8 10.00 Fair CLR 87.8 77 70% 100 30.08 0.0
01 13:35 E 8 10.00 Fair CLR 89.6 77 67% 103 30.08 0.0
01 13:15 E 8 10.00 Fair CLR 87.8 77 70% 100 30.09 0.0
01 12:55 Vrbl 5 10.00 Fair CLR 89.6 73.4 59% 98 30.09 0.0
01 12:35 NE 8 10.00 Fair CLR 89.6 71.6 55% 96 30.09 0.0
01 12:15 E 9 10.00 A Few Clouds FEW027 87.8 73.4 62% 96 30.1 0.0
01 11:55 Calm 10.00 Fair CLR 86 75.2 70% 95 30.1 0.0
01 11:35 Calm 10.00 Fair CLR 87.8 77 70% 100 30.1 0.0
01 11:15 Calm 10.00 Fair CLR 86 77 75% 97 30.11 0.0
01 10:55 N 5 10.00 A Few Clouds FEW017 86 75.2 70% 95 30.11 0.0
01 10:35 N 5 10.00 Fair CLR 84.2 77 79% 94 30.11 0.0
01 10:15 NE 8 10.00 Fair CLR 82.4 77 84% 91 30.1 0.0
01 09:55 N 9 10.00 A Few Clouds FEW009 82.4 78.8 89% 92 30.1 0.0
01 09:35 Calm 9.00 A Few Clouds FEW006 80.6 80.6 100% 89 30.1 0.0
01 09:15 N 8 4.00 Fog/Mist SCT005 78.8 78.8 100% 83 30.1 0.0
01 08:50 N 6 1.00 Fog/Mist OVC003 77 77 100% 78 30.1 0.0
01 08:35 N 7 0.50 Fog OVC002 77 77 100% 78 30.1 0.0
01 08:15 N 5 0.50 Fog OVC002 77 77 100% 78 30.09 0.0
01 07:55 N 5 0.25 Fog OVC002 77 77 100% 78 30.08 0.0
01 07:35 N 6 0.25 Fog OVC002 77 77 100% 78 30.08 0.0
01 07:15 N 3 0.15 Fog OVC002 77 77 100% 78 30.07 0.0
01 06:55 N 6 0.15 Fog OVC002 77 77 100% 78 30.07 0.0
01 06:35 N 5 0.25 Fog OVC002 77 77 100% 78 30.06 0.0
01 06:15 N 5 0.75 Fog/Mist OVC002 77 77 100% 78 30.06 0.0
01 05:55 Calm 2.50 Fog/Mist OVC003 77 77 100% 78 30.06 0.0
01 05:35 N 5 1.25 Fog/Mist OVC002 77 77 100% 78 30.05 0.0
01 05:15 Calm 2.50 Fog/Mist BKN002 77 77 100% 78 30.06 0.0
01 04:55 Calm 8.00 Fair CLR 77 77 100% 78 30.05 0.0
01 04:35 Calm 3.00 Fog/Mist CLR 75.2 75.2 100% 73 30.06 0.0
01 04:15 Calm 4.00 Fog/Mist CLR 75.2 75.2 100% 73 30.06 0.0
01 03:55 Calm 7.00 Fair CLR 77 77 100% 78 30.06 0.0
01 03:35 Calm 10.00 Fair CLR 77 77 100% 78 30.06 0.0
01 03:15 Calm 10.00 Fair CLR 77 77 100% 78 30.06 0.0
01 02:55 Calm 10.00 Fair CLR 77 77 100% 78 30.06 0.0
01 02:35 Calm 10.00 Fair CLR 77 77 100% 78 30.07 0.0
01 02:15 Calm 10.00 Fair CLR 77 77 100% 78 30.08 0.0
01 01:55 Calm 10.00 Fair CLR 77 77 100% 78 30.08 0.0
01 01:35 Calm 10.00 Fair CLR 75.2 75.2 100% 73 30.09 0.0
01 01:15 Calm 10.00 Fair CLR 77 77 100% 78 30.08 0.0
01 00:55 Calm 10.00 Fair CLR 77 77 100% 78 30.08 0.0
01 00:35 Calm 10.00 Fair CLR 77 77 100% 78 30.08 0.0
01 00:15 Calm 10.00 Fair CLR 77 77 100% 78 30.08 0.0
31 23:55 Calm 10.00 Fair CLR 77 77 100% 78 30.08 0.0
31 23:35 Calm 10.00 Fair CLR 78.8 78.8 100% 83 30.09 0.0
31 23:15 Calm 10.00 Fair CLR 78.8 77 94% 83 30.09 0.0
31 22:55 Calm 10.00 Fair CLR 78.8 78.8 100% 83 30.09 0.0
31 22:35 Calm 10.00 Fair CLR 78.8 78.8 100% 83 30.1 0.0
31 22:15 Calm 10.00 Fair CLR 78.8 77 94% 83 30.09 0.0
31 21:55 Calm 10.00 Fair CLR 78.8 77 94% 83 30.09 0.0
31 21:35 Calm 10.00 Fair CLR 78.8 77 94% 83 30.09 0.0
31 21:15 Calm 10.00 Fair CLR 78.8 77 94% 83 30.08 0.0
31 20:55 Calm 10.00 Fair CLR 78.8 77 94% 83 30.08 0.0
31 20:35 Calm 10.00 Fair CLR 80.6 77 89% 87 30.08 0.0
31 20:15 Calm 10.00 Fair CLR 80.6 77 89% 87 30.07 0.0
31 19:35 E 7 10.00 Fair CLR 82.4 77 84% 91 30.07 0.0
31 19:15 E 7 10.00 A Few Clouds FEW016 82.4 77 84% 91 30.07 0.0
31 18:55 E 9 10.00 Fair CLR 84.2 77 79% 94 30.06 0.0
31 18:35 E 8 10.00 Fair CLR 84.2 75.2 74% 92 30.06 0.0
31 18:15 E 8 10.00 Fair CLR 86 75.2 70% 95 30.06 0.0
31 17:55 E 8 10.00 Fair CLR 84.2 75.2 74% 92 30.07 0.0
31 17:35 E 6 10.00 Fair CLR 84.2 75.2 74% 92 30.07 0.0
31 17:15 E 7 10.00 Fair CLR 84.2 75.2 74% 92 30.06 0.0
31 16:50 E 9 10.00 Fair CLR 84.2 77 79% 94 30.06 0.0
31 16:35 Calm 10.00 Fair CLR 84.2 75.2 74% 92 30.06 0.0
Date Time (edt) Wind (mph) Vis. (mi.) Weather Sky Cond. Air Dwpt Max. Min. Relative Humidity Wind Chill (°F) Heat Index (°F) altimeter (in) sea level (mb) 1 hr 3 hr 6 hr
6 hour
Temperature (ºF) Pressure Precipitation (in)